Summit Station, Pennsylvania
Current Conditions -  °F | °C
As of 5:54 AM on Monday 22 Dec 2014 (Local Time) from KRDG Reporting Station
Haze Haze  
Wind Chill: 20°   Ceiling: 2200
Heat Index: 20°   Visibility: 5mi
Dew Point: 17°   Wind: 0mph
Humidity: 89%   Direction: NA
Pressure: 30.29"   Gusts: NA
Location:  40.56°N, 76.2°W
Report Text: KRDG 221054Z AUTO 00000KT 5SM BR BKN022 M07/M08 A3029 RMK AO2 SLP269 T10671083
Loading
Personal Weather Stations






























Interactive Weather Map New forecast layout! Learn more

10-Day Weather Forecast

Advertisements
Track Severe Weather on mobile